Time;durP1;ratioP1;P1;durP2;ratioP2;P2;SDS_P1;SDS_P2;PMS_P1;PMS_P2;Temp;Humidity;BMP_temperature;BMP_pressure;BME280_temperature;BME280_humidity;BME280_pressure;Samples;Min_cycle;Max_cycle;Signal;HPM_P1;HPM_P2
2024/02/27 00:02:36;;;;;;;36.20;24.90;;;;;;;7.80;100.00;99702.69;4968224;28;20046;-68
2024/02/27 00:05:06;;;;;;;35.70;25.55;;;;;;;7.80;100.00;99718.50;4953516;28;20130;-68
2024/02/27 00:07:34;;;;;;;37.88;25.10;;;;;;;7.76;100.00;99722.19;4969479;28;20055;-68
2024/02/27 00:10:04;;;;;;;36.28;24.60;;;;;;;7.71;100.00;99711.03;4952694;28;20162;-68
2024/02/27 00:12:32;;;;;;;41.58;26.25;;;;;;;7.69;100.00;99719.00;4971251;28;20083;-70
2024/02/27 00:15:00;;;;;;;38.13;25.83;;;;;;;7.68;100.00;99724.34;4949584;28;20055;-69
2024/02/27 00:17:28;;;;;;;36.58;24.02;;;;;;;7.66;100.00;99731.44;4955352;28;20062;-70
2024/02/27 00:19:56;;;;;;;35.85;23.83;;;;;;;7.63;100.00;99734.22;4976307;28;20035;-68
2024/02/27 00:22:25;;;;;;;37.22;25.65;;;;;;;7.57;100.00;99724.81;4972268;28;20047;-69
2024/02/27 00:24:54;;;;;;;38.33;25.38;;;;;;;7.49;100.00;99726.09;4981390;28;20054;-70
2024/02/27 00:27:22;;;;;;;39.63;24.92;;;;;;;7.57;100.00;99739.75;4973704;28;20042;-70
2024/02/27 00:29:50;;;;;;;35.85;24.35;;;;;;;7.57;100.00;99745.03;4968256;28;20066;-69
2024/02/27 00:32:18;;;;;;;34.17;23.77;;;;;;;7.53;100.00;99754.00;4971471;28;21068;-69
2024/02/27 00:34:48;;;;;;;;;;;;;;;7.55;100.00;99765.34;4968299;28;20058;-71
2024/02/27 00:37:16;;;;;;;36.25;24.75;;;;;;;7.53;100.00;99757.50;4973162;28;20431;-67
2024/02/27 00:39:47;;;;;;;33.67;22.98;;;;;;;7.59;100.00;99770.38;4970006;28;20077;-72
2024/02/27 00:42:15;;;;;;;39.33;24.27;;;;;;;7.56;100.00;99762.59;4971302;28;20066;-70
2024/02/27 00:44:45;;;;;;;34.78;23.70;;;;;;;7.61;100.00;99770.31;4977566;28;20046;-71
2024/02/27 00:47:13;;;;;;;36.15;24.00;;;;;;;7.64;100.00;99783.38;4970535;28;20055;-69
2024/02/27 00:49:42;;;;;;;35.00;22.83;;;;;;;7.62;100.00;99785.22;4988730;28;20034;-71
2024/02/27 00:52:11;;;;;;;34.20;23.88;;;;;;;7.51;100.00;99769.03;4977869;28;20054;-69
2024/02/27 00:54:39;;;;;;;32.65;23.27;;;;;;;7.55;100.00;99783.78;4985644;28;20051;-68
2024/02/27 00:57:08;;;;;;;34.53;22.75;;;;;;;7.54;100.00;99792.63;5006023;28;20054;-70
2024/02/27 00:59:36;;;;;;;36.83;24.58;;;;;;;7.51;100.00;99784.84;4989046;28;20027;-68
2024/02/27 01:02:04;;;;;;;35.67;24.17;;;;;;;7.38;100.00;99758.19;4992880;28;20055;-68
2024/02/27 01:04:33;;;;;;;33.90;24.58;;;;;;;7.47;100.00;99784.09;4989348;28;20056;-65
2024/02/27 01:07:02;;;;;;;39.33;24.98;;;;;;;7.45;100.00;99779.81;4988753;28;20039;-69
2024/02/27 01:09:33;;;;;;;35.45;23.35;;;;;;;7.42;100.00;99790.50;4985621;28;20035;-69
2024/02/27 01:12:01;;;;;;;34.15;23.65;;;;;;;7.34;100.00;99788.22;4985894;28;20038;-66
2024/02/27 01:14:31;;;;;;;32.85;23.25;;;;;;;7.34;100.00;99777.66;4978406;28;21451;-65
2024/02/27 01:17:00;;;;;;;34.83;24.80;;;;;;;7.24;100.00;99777.19;4989014;28;20049;-69
2024/02/27 01:19:28;;;;;;;35.78;24.02;;;;;;;7.29;100.00;99801.56;4985147;28;20051;-68
2024/02/27 01:21:59;;;;;;;36.47;24.70;;;;;;;7.28;100.00;99802.47;4993965;28;20043;-69
2024/02/27 01:24:26;;;;;;;;;;;;;;;7.28;100.00;99796.34;4973893;28;20042;-71
2024/02/27 01:26:56;;;;;;;33.63;24.00;;;;;;;7.28;100.00;99789.31;4976609;28;20635;-69
2024/02/27 01:29:25;;;;;;;37.33;24.58;;;;;;;7.33;100.00;99800.53;4972910;28;20503;-68
2024/02/27 01:31:55;;;;;;;38.67;25.08;;;;;;;7.28;100.00;99789.31;4999432;28;20473;-69
2024/02/27 01:34:25;;;;;;;34.60;23.53;;;;;;;7.30;100.00;99803.28;4997340;28;20074;-70
2024/02/27 01:36:53;;;;;;;36.63;24.50;;;;;;;7.32;100.00;99805.84;4993281;28;20042;-70
2024/02/27 01:39:21;;;;;;;32.72;23.13;;;;;;;7.34;100.00;99799.59;4969679;28;20057;-70
2024/02/27 01:41:49;;;;;;;36.03;23.77;;;;;;;7.32;100.00;99801.44;4978305;28;20055;-69
2024/02/27 01:44:17;;;;;;;34.40;22.95;;;;;;;7.35;100.00;99803.94;4971396;28;20043;-67
2024/02/27 01:46:46;;;;;;;35.85;23.13;;;;;;;7.36;100.00;99803.03;4972978;28;20352;-67
2024/02/27 01:49:16;;;;;;;36.58;23.75;;;;;;;7.30;100.00;99792.75;4992812;28;20191;-70
2024/02/27 01:51:47;;;;;;;36.92;24.23;;;;;;;7.35;100.00;99801.31;4993059;28;20047;-71
2024/02/27 01:54:20;;;;;;;34.95;25.00;;;;;;;7.33;100.00;99792.63;4953929;28;20047;-67
2024/02/27 01:56:49;;;;;;;33.35;23.23;;;;;;;7.31;100.00;99797.09;4968939;28;20065;-70
2024/02/27 01:59:21;;;;;;;34.23;23.27;;;;;;;7.29;100.00;99795.44;4980346;28;20035;-67
2024/02/27 02:01:52;;;;;;;36.20;23.85;;;;;;;7.30;100.00;99787.47;4999332;28;20151;-70
2024/02/27 02:04:23;;;;;;;31.88;22.58;;;;;;;7.23;100.00;99793.94;4972569;28;20055;-68
2024/02/27 02:06:52;;;;;;;31.63;21.80;;;;;;;7.29;100.00;99805.97;4970730;28;20047;-68
2024/02/27 02:09:20;;;;;;;33.33;22.20;;;;;;;7.25;100.00;99810.50;4965898;28;20046;-70
2024/02/27 02:11:50;;;;;;;34.17;22.90;;;;;;;7.22;100.00;99804.53;4967692;28;20178;-68
2024/02/27 02:14:20;;;;;;;33.17;22.85;;;;;;;7.20;100.00;99815.13;4967810;28;20039;-68
2024/02/27 02:16:48;;;;;;;32.92;21.88;;;;;;;7.21;100.00;99822.13;4964641;28;20046;-69
2024/02/27 02:19:16;;;;;;;32.03;21.55;;;;;;;7.17;100.00;99815.25;4967251;28;20070;-71
2024/02/27 02:21:49;;;;;;;32.15;22.80;;;;;;;7.17;100.00;99817.91;4971889;28;20153;-68
2024/02/27 02:24:19;;;;;;;31.80;21.52;;;;;;;7.16;100.00;99812.69;4980922;28;20050;-70
2024/02/27 02:26:47;;;;;;;33.03;22.60;;;;;;;7.12;100.00;99817.22;4963887;28;20047;-72
2024/02/27 02:29:17;;;;;;;31.05;21.63;;;;;;;7.14;100.00;99823.28;4969415;28;20046;-69
2024/02/27 02:31:45;;;;;;;32.58;22.92;;;;;;;6.97;100.00;99792.41;4983584;28;20042;-69
2024/02/27 02:34:13;;;;;;;31.70;21.73;;;;;;;7.07;100.00;99821.84;4965381;28;20038;-69
2024/02/27 02:36:42;;;;;;;32.92;21.92;;;;;;;7.03;100.00;99820.25;4980032;28;20043;-69
2024/02/27 02:39:11;;;;;;;32.50;20.90;;;;;;;7.02;100.00;99826.44;4967874;28;20145;-68
2024/02/27 02:41:40;;;;;;;32.03;21.98;;;;;;;7.01;100.00;99828.22;4968128;28;20459;-71
2024/02/27 02:44:08;;;;;;;35.95;22.90;;;;;;;7.00;100.00;99830.91;4961881;28;20526;-70
2024/02/27 02:46:39;;;;;;;32.22;21.52;;;;;;;7.00;100.00;99836.16;4964735;28;20046;-70
2024/02/27 02:49:07;;;;;;;32.50;21.38;;;;;;;6.88;100.00;99818.25;4966891;28;20059;-70
2024/02/27 02:51:37;;;;;;;31.13;21.25;;;;;;;6.92;100.00;99839.13;4963853;28;20046;-68
2024/02/27 02:54:05;;;;;;;32.40;21.10;;;;;;;6.88;100.00;99837.53;4971497;28;20066;-70
2024/02/27 02:56:34;;;;;;;31.63;21.27;;;;;;;6.89;100.00;99843.66;4974290;28;20035;-70
2024/02/27 02:59:02;;;;;;;30.52;21.48;;;;;;;6.85;100.00;99842.91;4965750;28;20051;-70
2024/02/27 03:01:30;;;;;;;30.35;22.13;;;;;;;6.79;100.00;99842.28;4973148;28;20042;-70
2024/02/27 03:03:58;;;;;;;32.88;21.83;;;;;;;6.69;100.00;99831.28;4969481;28;20050;-70
2024/02/27 03:06:26;;;;;;;32.00;21.73;;;;;;;6.66;100.00;99829.63;4960971;28;20046;-70
2024/02/27 03:08:54;;;;;;;31.27;21.70;;;;;;;6.65;100.00;99830.56;4961021;28;20039;-70
2024/02/27 03:11:30;;;;;;;34.40;22.02;;;;;;;6.72;100.00;99846.97;4969053;28;20061;-69
2024/02/27 03:13:59;;;;;;;67.82;32.22;;;;;;;6.63;100.00;99832.38;4968578;28;20055;-69
2024/02/27 03:16:30;;;;;;;34.50;22.92;;;;;;;6.68;100.00;99856.75;4965059;28;20054;-68
2024/02/27 03:18:58;;;;;;;47.30;25.52;;;;;;;6.69;100.00;99868.13;4954353;28;20046;-69
2024/02/27 03:21:27;;;;;;;36.60;23.15;;;;;;;6.69;100.00;99868.13;4973860;28;21357;-69
2024/02/27 03:23:55;;;;;;;34.28;22.20;;;;;;;6.71;100.00;99866.28;4986704;28;20047;-68
2024/02/27 03:26:25;;;;;;;34.97;22.80;;;;;;;6.64;100.00;99870.94;4963799;28;20101;-71
2024/02/27 03:28:53;;;;;;;33.92;21.60;;;;;;;6.61;100.00;99864.97;4984078;28;20074;-70
2024/02/27 03:31:25;;;;;;;31.23;21.92;;;;;;;6.56;100.00;99867.75;4968451;28;20065;-70
2024/02/27 03:33:52;;;;;;;35.90;22.80;;;;;;;6.51;100.00;99864.44;4976366;28;20047;-69
2024/02/27 03:36:20;;;;;;;33.63;21.95;;;;;;;6.50;100.00;99867.13;4996153;28;20061;-66
2024/02/27 03:38:48;;;;;;;35.20;22.52;;;;;;;6.47;100.00;99878.63;4993541;28;20035;-66
2024/02/27 03:41:16;;;;;;;31.00;20.98;;;;;;;6.43;100.00;99884.94;4993677;28;20047;-69
2024/02/27 03:43:44;;;;;;;31.90;20.83;;;;;;;6.42;100.00;99885.84;4984082;28;20054;-70
2024/02/27 03:46:13;;;;;;;33.58;22.50;;;;;;;6.41;100.00;99878.88;4969038;28;20093;-70
2024/02/27 03:48:42;;;;;;;34.33;22.13;;;;;;;6.42;100.00;99880.59;4974880;28;20504;-68
2024/02/27 03:51:10;;;;;;;36.10;22.63;;;;;;;6.40;100.00;99871.91;4955657;28;20113;-67
2024/02/27 03:53:39;;;;;;;32.25;21.10;;;;;;;6.38;100.00;99878.97;4974799;28;20081;-68
2024/02/27 03:56:08;;;;;;;33.10;20.85;;;;;;;6.34;100.00;99888.75;4975752;28;20077;-67
2024/02/27 03:58:36;;;;;;;30.75;20.92;;;;;;;6.29;100.00;99884.59;4994687;28;20051;-68
2024/02/27 04:01:06;;;;;;;30.60;20.45;;;;;;;6.26;100.00;99889.97;4979683;28;20053;-70
2024/02/27 04:03:34;;;;;;;31.35;21.02;;;;;;;6.26;100.00;99895.22;4982111;28;20077;-69
2024/02/27 04:06:14;;;;;;;33.28;22.13;;;;;;;6.27;100.00;99903.06;4975499;28;20058;-69
2024/02/27 04:08:45;;;;;;;29.88;20.38;;;;;;;6.21;100.00;99891.91;4986913;28;20051;-70
2024/02/27 04:11:13;;;;;;;33.13;21.42;;;;;;;6.24;100.00;99912.81;4991300;28;20046;-67
2024/02/27 04:13:41;;;;;;;28.98;19.48;;;;;;;6.20;100.00;99916.47;4995486;28;20050;-65
2024/02/27 04:16:09;;;;;;;33.03;20.58;;;;;;;6.19;100.00;99922.66;4975560;28;20070;-66
2024/02/27 04:18:37;;;;;;;32.58;20.50;;;;;;;6.15;100.00;99929.78;4972723;28;20060;-69
2024/02/27 04:21:07;;;;;;;30.52;20.77;;;;;;;6.12;100.00;99924.66;4971438;28;20054;-70
2024/02/27 04:23:43;;;;;;;29.23;19.45;;;;;;;6.11;100.00;99924.72;4967976;28;20075;-69
2024/02/27 04:26:11;;;;;;;31.33;20.75;;;;;;;6.10;100.00;99925.63;4983961;28;20047;-70
2024/02/27 04:28:39;;;;;;;31.92;19.98;;;;;;;6.14;100.00;99932.50;4969005;28;20057;-69
2024/02/27 04:31:07;;;;;;;29.52;19.63;;;;;;;6.10;100.00;99929.09;4968845;28;20102;-68
2024/02/27 04:33:35;;;;;;;29.92;19.15;;;;;;;6.07;100.00;99931.84;4992463;28;20047;-69
2024/02/27 04:36:08;;;;;;;32.97;20.60;;;;;;;6.06;100.00;99930.13;4991210;28;20051;-69
2024/02/27 04:38:37;;;;;;;30.52;20.98;;;;;;;6.06;100.00;99939.78;5001000;28;20068;-70
2024/02/27 04:41:06;;;;;;;32.22;20.75;;;;;;;6.05;100.00;99938.91;4990793;28;20042;-69
2024/02/27 04:43:36;;;;;;;32.17;20.33;;;;;;;6.07;100.00;99938.88;5009412;28;20030;-68
2024/02/27 04:46:05;;;;;;;31.30;20.27;;;;;;;6.01;100.00;99926.78;4988120;28;20065;-68
2024/02/27 04:48:34;;;;;;;29.02;18.92;;;;;;;6.03;100.00;99932.00;4974861;28;20038;-69
2024/02/27 04:51:01;;;;;;;29.55;19.27;;;;;;;5.90;100.00;99919.31;4976052;28;20054;-69
2024/02/27 04:53:31;;;;;;;31.00;19.52;;;;;;;5.92;100.00;99927.13;4972217;28;20074;-69
2024/02/27 04:55:58;;;;;;;29.95;19.63;;;;;;;5.98;100.00;99953.22;4985035;28;20046;-66
2024/02/27 04:58:26;;;;;;;29.80;19.55;;;;;;;5.90;100.00;99949.97;4969711;28;20194;-69
2024/02/27 05:00:54;;;;;;;30.85;20.63;;;;;;;5.95;100.00;99966.44;4972725;28;20035;-68
2024/02/27 05:03:22;;;;;;;33.45;21.17;;;;;;;5.88;100.00;99963.16;4978366;28;20065;-67
2024/02/27 05:05:51;;;;;;;32.17;20.35;;;;;;;5.89;100.00;99974.53;4970357;28;20580;-68
2024/02/27 05:08:19;;;;;;;32.63;20.58;;;;;;;5.94;100.00;99973.47;4969058;28;20046;-69
2024/02/27 05:10:49;;;;;;;34.05;20.98;;;;;;;5.90;100.00;99971.84;4970053;28;20046;-70
2024/02/27 05:13:18;;;;;;;31.05;20.52;;;;;;;5.93;100.00;99971.75;4970475;28;20043;-68
2024/02/27 05:15:54;;;;;;;31.88;20.60;;;;;;;5.95;100.00;99974.34;4966564;28;20157;-68
2024/02/27 05:18:26;;;;;;;35.03;20.65;;;;;;;5.95;100.00;99967.31;4990734;28;20057;-70
2024/02/27 05:20:54;;;;;;;34.15;20.33;;;;;;;5.87;100.00;99971.91;4988819;28;20127;-69
2024/02/27 05:23:22;;;;;;;32.13;19.90;;;;;;;5.89;100.00;99988.53;4994887;28;20042;-71
2024/02/27 05:25:54;;;;;;;32.33;20.02;;;;;;;5.88;100.00;99996.44;4977758;28;20074;-70
2024/02/27 05:28:23;;;;;;;31.30;19.15;;;;;;;5.87;100.00;100002.59;4980211;28;20086;-67
2024/02/27 05:30:52;;;;;;;31.98;19.77;;;;;;;5.80;100.00;100007.22;4977088;28;20043;-69
2024/02/27 05:33:20;;;;;;;33.78;20.27;;;;;;;5.75;100.00;99998.63;4996774;28;20057;-69
2024/02/27 05:35:49;;;;;;;31.55;19.13;;;;;;;5.68;100.00;99997.09;4975661;28;20097;-66
2024/02/27 05:38:17;;;;;;;34.53;20.00;;;;;;;5.78;100.00;100018.69;4977376;28;20050;-69
2024/02/27 05:40:45;;;;;;;30.85;19.92;;;;;;;5.80;100.00;100028.25;4978213;28;20039;-70
2024/02/27 05:43:14;;;;;;;32.28;19.83;;;;;;;5.75;100.00;100029.28;4975176;28;20038;-69
2024/02/27 05:45:42;;;;;;;29.83;19.30;;;;;;;5.80;100.00;100038.75;4958430;28;20058;-67
2024/02/27 05:48:10;;;;;;;28.88;18.77;;;;;;;5.75;100.00;100032.78;4969178;28;20106;-69
2024/02/27 05:50:39;;;;;;;31.60;19.42;;;;;;;5.81;100.00;100050.97;4981858;28;20132;-66
2024/02/27 05:53:06;;;;;;;30.25;19.27;;;;;;;5.78;100.00;100055.47;4969150;28;20046;-69
2024/02/27 05:55:36;;;;;;;31.27;19.60;;;;;;;5.71;100.00;100054.78;4968176;28;20061;-67
2024/02/27 05:58:06;;;;;;;29.27;18.45;;;;;;;5.68;100.00;100039.13;4979671;28;20502;-68
2024/02/27 06:00:35;;;;;;;29.85;19.17;;;;;;;5.71;100.00;100065.31;4971016;28;20061;-71
2024/02/27 06:03:04;;;;;;;30.80;18.88;;;;;;;5.68;100.00;100059.28;4965896;28;21193;-69
2024/02/27 06:05:34;;;;;;;27.88;18.33;;;;;;;5.62;100.00;100055.97;4984963;28;20043;-70
2024/02/27 06:08:05;;;;;;;30.27;19.02;;;;;;;5.54;100.00;100044.84;4978691;28;20050;-71
2024/02/27 06:10:33;;;;;;;32.47;19.48;;;;;;;5.61;100.00;100046.38;4967177;28;20089;-68
2024/02/27 06:13:01;;;;;;;31.27;19.88;;;;;;;5.63;100.00;100057.69;4963245;28;20140;-69
2024/02/27 06:15:29;;;;;;;26.38;17.40;;;;;;;5.57;100.00;100067.50;4970035;28;20046;-70
2024/02/27 06:18:00;;;;;;;28.33;18.80;;;;;;;5.58;100.00;100072.72;4960059;28;20671;-65
2024/02/27 06:23:15;;;;;;;28.75;19.13;;;;;;;5.57;100.00;100073.63;4966134;28;20138;-69
2024/02/27 06:25:44;;;;;;;33.85;20.08;;;;;;;5.63;100.00;100077.84;4974014;28;20057;-69
2024/02/27 06:28:14;;;;;;;28.85;18.80;;;;;;;5.62;100.00;100070.88;4960989;28;20156;-68
2024/02/27 06:30:42;;;;;;;29.42;17.92;;;;;;;5.61;100.00;100066.53;4963793;28;20058;-70
2024/02/27 06:33:12;;;;;;;32.40;18.65;;;;;;;5.69;100.00;100082.88;4971888;28;20231;-68
2024/02/27 06:35:40;;;;;;;27.73;17.70;;;;;;;5.72;100.00;100077.53;4966411;28;20050;-68
2024/02/27 06:38:10;;;;;;;31.13;18.88;;;;;;;5.60;100.00;100059.53;4956414;28;20491;-71
2024/02/27 06:40:39;;;;;;;31.85;19.15;;;;;;;5.73;100.00;100086.28;4984874;28;20050;-71
2024/02/27 06:43:07;;;;;;;30.15;19.15;;;;;;;5.70;100.00;100095.09;4943001;28;20481;-70
2024/02/27 06:45:37;;;;;;;27.23;18.13;;;;;;;5.67;100.00;100100.44;4966535;28;20036;-71
2024/02/27 06:48:09;;;;;;;29.13;18.92;;;;;;;5.67;100.00;100107.50;4960726;28;20046;-68
2024/02/27 06:50:39;;;;;;;27.92;18.00;;;;;;;5.64;100.00;100105.84;4966993;28;20047;-69
2024/02/27 06:53:09;;;;;;;29.80;19.63;;;;;;;5.68;100.00;100107.44;4962513;28;20050;-68
2024/02/27 06:55:37;;;;;;;28.25;18.55;;;;;;;5.62;100.00;100105.88;4949223;28;20058;-68
2024/02/27 06:58:06;;;;;;;31.63;19.98;;;;;;;5.67;100.00;100110.97;4936254;28;20059;-70
2024/02/27 07:00:34;;;;;;;29.08;19.17;;;;;;;5.70;100.00;100117.88;4952401;28;20054;-69
2024/02/27 07:03:05;;;;;;;31.90;19.55;;;;;;;5.69;100.00;100114.41;4966105;28;20117;-68
2024/02/27 07:05:35;;;;;;;32.08;18.95;;;;;;;5.63;100.00;100112.84;4971828;28;20102;-67
2024/02/27 07:08:20;;;;;;;31.08;18.95;;;;;;;5.67;100.00;100116.22;4982127;28;20051;-69
2024/02/27 07:10:48;;;;;;;30.45;19.15;;;;;;;5.68;100.00;100123.19;4967857;28;20489;-70
2024/02/27 07:13:18;;;;;;;30.15;18.85;;;;;;;5.70;100.00;100126.63;4959677;28;20411;-70
2024/02/27 07:15:46;;;;;;;31.15;19.25;;;;;;;5.71;100.00;100122.25;4978506;28;20038;-69
2024/02/27 07:18:15;;;;;;;32.08;18.75;;;;;;;5.71;100.00;100112.59;4989599;28;20078;-67
2024/02/27 07:20:45;;;;;;;33.78;19.80;;;;;;;5.81;100.00;100121.91;4985273;28;20150;-70
2024/02/27 07:23:13;;;;;;;29.92;19.52;;;;;;;5.85;100.00;100118.25;4978341;28;20133;-67
2024/02/27 07:25:52;;;;;;;29.92;19.05;;;;;;;5.94;100.00;100119.78;4985012;28;20152;-68
2024/02/27 07:28:20;;;;;;;30.65;18.77;;;;;;;5.97;100.00;100119.69;4988985;28;20511;-68
2024/02/27 07:30:57;;;;;;;31.65;18.80;;;;;;;6.14;100.00;100132.28;4971555;28;20126;-68
2024/02/27 07:33:27;;;;;;;32.85;19.40;;;;;;;6.20;100.00;100129.44;4971239;28;20078;-68
2024/02/27 07:35:57;;;;;;;32.97;19.20;;;;;;;6.17;100.00;100112.00;4986813;28;20053;-68
2024/02/27 07:38:25;;;;;;;29.98;18.00;;;;;;;6.28;100.00;100122.16;4967433;28;20418;-69
2024/02/27 07:40:56;;;;;;;31.55;19.30;;;;;;;6.37;100.00;100128.88;4969784;28;20058;-70
2024/02/27 07:43:26;;;;;;;32.75;18.80;;;;;;;6.41;100.00;100131.34;4957764;28;20051;-70
2024/02/27 07:45:56;;;;;;;28.10;17.13;;;;;;;6.45;100.00;100138.22;4973700;28;20073;-67
2024/02/27 07:48:24;;;;;;;28.80;17.90;;;;;;;6.50;100.00;100130.16;4994067;28;20105;-67
2024/02/27 07:50:54;;;;;;;28.00;18.15;;;;;;;6.56;100.00;100137.84;4985707;28;20140;-70
2024/02/27 07:53:23;;;;;;;31.70;19.42;;;;;;;6.61;100.00;100139.41;4982565;28;20614;-68
2024/02/27 07:55:51;;;;;;;30.67;18.65;;;;;;;6.65;100.00;100138.38;4980698;28;20818;-67
2024/02/27 07:58:21;;;;;;;29.05;17.70;;;;;;;6.68;100.00;100145.31;4990565;28;20050;-69
2024/02/27 08:00:50;;;;;;;28.02;18.50;;;;;;;6.74;100.00;100152.16;4976590;28;20109;-66
2024/02/27 08:03:19;;;;;;;27.67;17.38;;;;;;;6.85;100.00;100140.31;4997033;28;20046;-65
2024/02/27 08:05:48;;;;;;;27.70;17.77;;;;;;;6.98;100.00;100144.22;4998767;28;20057;-67
2024/02/27 08:08:16;;;;;;;27.73;17.08;;;;;;;7.04;100.00;100144.00;4978786;28;20057;-70
2024/02/27 08:10:44;;;;;;;28.20;17.40;;;;;;;6.99;100.00;100132.78;4982358;28;20046;-66
2024/02/27 08:13:12;;;;;;;29.83;18.33;;;;;;;7.07;100.00;100135.16;4985438;28;20050;-66
2024/02/27 08:15:44;;;;;;;29.67;17.42;;;;;;;7.08;100.00;100126.34;4982916;28;20182;-66
2024/02/27 08:18:13;;;;;;;26.58;17.20;;;;;;;7.21;100.00;100124.09;4980448;28;20077;-69
2024/02/27 08:20:47;;;;;;;26.45;17.45;;;;;;;7.34;100.00;100133.25;4977907;28;20047;-69
2024/02/27 08:23:16;;;;;;;28.10;17.08;;;;;;;7.44;100.00;100124.06;4980612;28;20565;-61
2024/02/27 08:25:44;;;;;;;27.85;17.20;;;;;;;7.61;100.00;100123.41;4980559;28;20089;-68
2024/02/27 08:28:14;;;;;;;25.52;16.50;;;;;;;7.80;100.00;100123.56;4977702;28;20057;-66
2024/02/27 08:30:44;;;;;;;24.63;15.48;;;;;;;8.00;100.00;100132.38;4985202;28;20055;-68
2024/02/27 08:33:13;;;;;;;23.38;15.38;;;;;;;8.12;100.00;100133.66;4989842;28;20050;-68
2024/02/27 08:35:43;;;;;;;26.27;15.48;;;;;;;8.31;100.00;100131.13;4978515;28;20055;-68
2024/02/27 08:38:11;;;;;;;18.70;14.00;;;;;;;8.37;100.00;100133.50;4979437;28;20122;-64
2024/02/27 08:40:40;;;;;;;21.48;14.00;;;;;;;8.52;100.00;100134.66;4960801;28;20093;-69
2024/02/27 08:43:09;;;;;;;21.80;14.77;;;;;;;8.55;100.00;100132.75;4954388;28;20089;-67
2024/02/27 08:45:38;;;;;;;22.73;15.32;;;;;;;8.60;100.00;100138.69;4961264;28;20059;-69
2024/02/27 08:48:08;;;;;;;21.10;14.40;;;;;;;8.59;100.00;100142.25;4973069;28;20049;-66
2024/02/27 08:50:37;;;;;;;19.55;13.75;;;;;;;8.50;100.00;100139.16;4967678;28;20041;-68
2024/02/27 08:53:05;;;;;;;24.55;14.65;;;;;;;8.38;100.00;100149.28;4975574;28;20054;-68
2024/02/27 08:55:37;;;;;;;23.58;14.52;;;;;;;8.29;100.00;100146.16;4983064;28;20047;-69
2024/02/27 08:58:05;;;;;;;21.00;13.68;;;;;;;8.25;100.00;100147.19;4963989;28;20415;-70
2024/02/27 09:00:33;;;;;;;18.55;13.93;;;;;;;8.22;100.00;100150.81;4967730;28;20050;-70
2024/02/27 09:03:02;;;;;;;20.08;14.30;;;;;;;8.24;100.00;100151.59;4970600;28;20072;-69
2024/02/27 09:05:32;;;;;;;20.38;14.57;;;;;;;8.23;100.00;100149.88;4968457;28;20070;-68
2024/02/27 09:08:03;;;;;;;20.73;13.90;;;;;;;8.23;100.00;100157.81;4963376;28;20062;-69
2024/02/27 09:10:31;;;;;;;20.52;14.25;;;;;;;8.22;100.00;100145.53;4985661;28;20199;-70
2024/02/27 09:12:59;;;;;;;21.85;15.20;;;;;;;8.14;100.00;100159.97;4978446;28;21825;-65
2024/02/27 09:15:27;;;;;;;24.50;15.02;;;;;;;8.05;100.00;100162.03;4986006;28;20062;-67
2024/02/27 09:17:55;;;;;;;21.15;14.85;;;;;;;8.15;100.00;100161.69;4986861;28;20057;-67
2024/02/27 09:20:27;;;;;;;21.92;14.57;;;;;;;8.30;100.00;100155.78;4991123;28;20076;-65
2024/02/27 09:22:59;;;;;;;20.58;13.70;;;;;;;8.41;100.00;100143.88;4987886;28;20044;-66
2024/02/27 09:25:28;;;;;;;20.27;14.27;;;;;;;8.52;100.00;100146.06;4989340;28;20055;-67
2024/02/27 09:27:57;;;;;;;23.35;14.40;;;;;;;8.66;100.00;100159.53;5000072;28;20062;-66
2024/02/27 09:30:25;;;;;;;20.45;13.77;;;;;;;8.75;100.00;100151.22;4959335;28;20058;-67
2024/02/27 09:32:54;;;;;;;20.00;14.15;;;;;;;8.78;100.00;100143.19;4964853;28;22301;-68
2024/02/27 09:35:22;;;;;;;19.98;13.32;;;;;;;8.85;100.00;100158.75;4949607;28;21866;-69
2024/02/27 09:37:52;;;;;;;20.45;14.13;;;;;;;8.72;100.00;100122.31;4947894;28;20237;-69
2024/02/27 09:40:26;;;;;;;19.55;13.88;;;;;;;8.73;100.00;100141.66;4963619;28;20636;-67
2024/02/27 09:42:59;;;;;;;21.70;12.88;;;;;;;8.80;100.00;100143.13;4967096;28;20459;-69
2024/02/27 09:45:27;;;;;;;17.13;12.35;;;;;;;8.87;100.00;100147.19;4983959;28;20383;-69
2024/02/27 09:48:02;;;;;;;19.67;12.90;;;;;;;8.92;100.00;100137.28;4965788;28;20553;-65
2024/02/27 09:50:33;;;;;;;18.67;13.43;;;;;;;8.97;100.00;100134.47;4973881;28;20058;-68
2024/02/27 09:53:03;;;;;;;18.42;12.88;;;;;;;9.09;100.00;100141.81;4970400;28;20050;-68
2024/02/27 09:55:32;;;;;;;18.73;13.05;;;;;;;9.17;100.00;100141.47;4971399;28;20047;-69
2024/02/27 09:58:04;;;;;;;20.48;12.65;;;;;;;9.16;100.00;100132.69;4959544;28;20222;-70
2024/02/27 10:00:34;;;;;;;20.25;13.05;;;;;;;9.25;100.00;100139.34;4948408;28;20062;-70
2024/02/27 10:03:03;;;;;;;17.15;12.70;;;;;;;9.30;100.00;100145.25;4955916;28;20062;-68
2024/02/27 10:05:33;;;;;;;18.85;12.32;;;;;;;9.31;100.00;100158.41;4958764;28;20042;-68
2024/02/27 10:08:03;;;;;;;20.70;12.67;;;;;;;9.21;100.00;100157.13;4965589;28;20047;-69
2024/02/27 10:10:37;;;;;;;17.27;12.55;;;;;;;9.09;100.00;100162.97;4987391;28;20489;-67
2024/02/27 10:13:07;;;;;;;16.38;12.82;;;;;;;8.92;100.00;100176.03;4971511;28;20181;-69
2024/02/27 10:15:35;;;;;;;18.02;12.57;;;;;;;8.92;100.00;100181.31;4956084;28;20055;-69
2024/02/27 10:18:06;;;;;;;18.55;12.63;;;;;;;9.05;100.00;100183.34;4961916;28;20058;-66
2024/02/27 10:20:35;;;;;;;19.10;13.43;;;;;;;9.31;100.00;100168.13;4969001;28;20056;-67
2024/02/27 10:23:04;;;;;;;18.98;13.13;;;;;;;9.64;100.00;100176.28;4991849;28;20031;-67
2024/02/27 10:25:35;;;;;;;;;;;;;;;9.99;100.00;100180.78;5006570;28;20114;-67
2024/02/27 10:28:06;;;;;;;18.75;12.65;;;;;;;10.26;100.00;100183.91;4973223;28;19930;-68
2024/02/27 10:30:36;;;;;;;17.95;12.60;;;;;;;10.34;100.00;100194.13;4997004;28;20074;-67
2024/02/27 10:33:11;;;;;;;20.67;12.32;;;;;;;10.07;100.00;100186.53;4994022;28;20070;-67
2024/02/27 10:35:41;;;;;;;19.50;12.73;;;;;;;9.91;100.00;100192.66;4991354;28;20041;-66
2024/02/27 10:38:19;;;;;;;22.00;13.13;;;;;;;9.73;100.00;100191.75;4987941;28;20070;-67
2024/02/27 10:40:50;;;;;;;17.52;12.77;;;;;;;9.64;100.00;100202.72;4972581;28;20070;-67
2024/02/27 10:43:19;;;;;;;19.67;12.20;;;;;;;9.70;100.00;100207.75;4989181;28;20037;-67
2024/02/27 10:45:50;;;;;;;17.90;12.73;;;;;;;9.84;100.00;100194.72;4988042;28;20047;-69
2024/02/27 10:48:18;;;;;;;18.17;12.77;;;;;;;9.94;100.00;100198.63;4979462;28;20055;-69
2024/02/27 10:51:02;;;;;;;18.27;12.07;;;;;;;10.08;100.00;100196.19;4968298;28;20061;-67
2024/02/27 10:53:31;;;;;;;16.45;12.05;;;;;;;10.14;100.00;100203.00;4993907;28;20051;-66
2024/02/27 10:56:03;;;;;;;18.42;12.88;;;;;;;10.06;100.00;100211.31;4985293;28;20432;-70
2024/02/27 10:58:33;;;;;;;17.25;12.45;;;;;;;9.97;100.00;100211.72;4979699;28;20051;-69
2024/02/27 11:01:03;;;;;;;;;;;;;;;10.03;100.00;100214.09;4971803;28;20415;-70
2024/02/27 11:03:33;;;;;;;18.48;12.25;;;;;;;9.97;100.00;100185.28;4968632;28;19933;-67
2024/02/27 11:06:03;;;;;;;19.15;12.05;;;;;;;10.25;100.00;100203.34;4966553;28;20055;-68
2024/02/27 11:08:31;;;;;;;21.63;12.40;;;;;;;10.34;100.00;100204.72;4931703;28;21674;-69
2024/02/27 11:11:06;;;;;;;15.38;11.85;;;;;;;10.40;100.00;100205.25;4946195;28;20474;-68
2024/02/27 11:13:35;;;;;;;16.83;11.27;;;;;;;10.46;100.00;100193.50;4950928;28;20106;-69
2024/02/27 11:16:06;;;;;;;17.15;11.85;;;;;;;10.72;100.00;100214.22;4960242;28;20043;-70
2024/02/27 11:18:36;;;;;;;17.67;11.70;;;;;;;10.81;100.00;100204.97;4944361;28;20418;-70
2024/02/27 11:21:06;;;;;;;17.42;11.50;;;;;;;10.98;100.00;100212.94;4914872;28;20722;-69
2024/02/27 11:23:35;;;;;;;16.42;12.00;;;;;;;10.97;100.00;100205.06;4948999;28;20372;-69
2024/02/27 11:26:07;;;;;;;13.60;10.87;;;;;;;11.01;100.00;100202.19;4970712;28;20066;-68
2024/02/27 11:28:35;;;;;;;16.52;11.38;;;;;;;11.00;100.00;100197.81;4975258;28;20050;-66